sensor_id;sensor_type;location;lat;lon;timestamp;P1;durP1;ratioP1;P2;durP2;ratioP2
34102;SDS011;20381;54.498;18.206;2023-01-16T00:05:21;2.87;;;1.10;;
34102;SDS011;20381;54.498;18.206;2023-01-16T00:07:47;5.47;;;1.45;;
34102;SDS011;20381;54.498;18.206;2023-01-16T00:10:14;2.50;;;1.10;;
34102;SDS011;20381;54.498;18.206;2023-01-16T00:12:46;2.83;;;1.25;;
34102;SDS011;20381;54.498;18.206;2023-01-16T00:15:25;2.05;;;0.68;;
34102;SDS011;20381;54.498;18.206;2023-01-16T00:17:58;1.30;;;0.70;;
34102;SDS011;20381;54.498;18.206;2023-01-16T00:20:31;4.00;;;0.78;;
34102;SDS011;20381;54.498;18.206;2023-01-16T00:22:58;2.30;;;1.13;;
34102;SDS011;20381;54.498;18.206;2023-01-16T00:37:10;4.00;;;0.85;;
34102;SDS011;20381;54.498;18.206;2023-01-16T00:42:26;4.97;;;0.68;;
34102;SDS011;20381;54.498;18.206;2023-01-16T01:00:07;1.85;;;0.90;;
34102;SDS011;20381;54.498;18.206;2023-01-16T01:02:37;4.03;;;1.65;;
34102;SDS011;20381;54.498;18.206;2023-01-16T01:05:07;3.55;;;0.70;;
34102;SDS011;20381;54.498;18.206;2023-01-16T01:07:34;2.60;;;0.70;;
34102;SDS011;20381;54.498;18.206;2023-01-16T01:10:01;3.43;;;1.07;;
34102;SDS011;20381;54.498;18.206;2023-01-16T01:12:28;1.87;;;0.80;;
34102;SDS011;20381;54.498;18.206;2023-01-16T01:14:57;2.37;;;1.07;;
34102;SDS011;20381;54.498;18.206;2023-01-16T01:17:24;3.10;;;1.00;;
34102;SDS011;20381;54.498;18.206;2023-01-16T01:19:51;1.00;;;0.55;;
34102;SDS011;20381;54.498;18.206;2023-01-16T01:22:17;2.00;;;0.60;;
34102;SDS011;20381;54.498;18.206;2023-01-16T01:24:57;1.33;;;0.80;;
34102;SDS011;20381;54.498;18.206;2023-01-16T01:27:19;2.62;;;0.90;;
34102;SDS011;20381;54.498;18.206;2023-01-16T01:29:45;2.27;;;1.07;;
34102;SDS011;20381;54.498;18.206;2023-01-16T01:32:16;3.33;;;0.88;;
34102;SDS011;20381;54.498;18.206;2023-01-16T01:34:43;2.87;;;1.03;;
34102;SDS011;20381;54.498;18.206;2023-01-16T01:43:41;1.40;;;0.82;;
34102;SDS011;20381;54.498;18.206;2023-01-16T01:46:20;2.92;;;0.85;;
34102;SDS011;20381;54.498;18.206;2023-01-16T01:48:51;1.52;;;0.80;;
34102;SDS011;20381;54.498;18.206;2023-01-16T01:51:24;2.70;;;0.98;;
34102;SDS011;20381;54.498;18.206;2023-01-16T01:53:59;2.12;;;0.82;;
34102;SDS011;20381;54.498;18.206;2023-01-16T01:56:33;4.65;;;0.85;;
34102;SDS011;20381;54.498;18.206;2023-01-16T01:59:15;0.60;;;0.42;;
34102;SDS011;20381;54.498;18.206;2023-01-16T02:01:53;4.78;;;1.45;;
34102;SDS011;20381;54.498;18.206;2023-01-16T02:04:27;3.33;;;0.70;;
34102;SDS011;20381;54.498;18.206;2023-01-16T02:07:01;0.90;;;0.57;;
34102;SDS011;20381;54.498;18.206;2023-01-16T02:15:57;4.17;;;1.07;;
34102;SDS011;20381;54.498;18.206;2023-01-16T02:18:42;3.02;;;1.32;;
34102;SDS011;20381;54.498;18.206;2023-01-16T02:27:27;1.32;;;0.62;;
34102;SDS011;20381;54.498;18.206;2023-01-16T02:33:34;1.82;;;0.85;;
34102;SDS011;20381;54.498;18.206;2023-01-16T02:37:05;5.55;;;0.62;;
34102;SDS011;20381;54.498;18.206;2023-01-16T02:48:11;1.95;;;0.88;;
34102;SDS011;20381;54.498;18.206;2023-01-16T02:51:03;1.80;;;1.05;;
34102;SDS011;20381;54.498;18.206;2023-01-16T02:53:51;1.77;;;0.78;;
34102;SDS011;20381;54.498;18.206;2023-01-16T02:56:34;1.80;;;0.70;;
34102;SDS011;20381;54.498;18.206;2023-01-16T02:59:20;5.25;;;0.88;;
34102;SDS011;20381;54.498;18.206;2023-01-16T03:08:12;2.95;;;1.00;;
34102;SDS011;20381;54.498;18.206;2023-01-16T03:18:49;2.27;;;1.02;;
34102;SDS011;20381;54.498;18.206;2023-01-16T03:34:40;1.70;;;0.55;;
34102;SDS011;20381;54.498;18.206;2023-01-16T03:37:35;3.05;;;1.00;;
34102;SDS011;20381;54.498;18.206;2023-01-16T03:40:51;2.52;;;0.80;;
34102;SDS011;20381;54.498;18.206;2023-01-16T03:43:32;3.53;;;0.80;;
34102;SDS011;20381;54.498;18.206;2023-01-16T03:46:07;1.22;;;1.00;;
34102;SDS011;20381;54.498;18.206;2023-01-16T03:51:30;3.22;;;1.25;;
34102;SDS011;20381;54.498;18.206;2023-01-16T03:59:44;2.80;;;1.02;;
34102;SDS011;20381;54.498;18.206;2023-01-16T04:02:30;1.50;;;0.72;;
34102;SDS011;20381;54.498;18.206;2023-01-16T04:05:05;3.10;;;0.82;;
34102;SDS011;20381;54.498;18.206;2023-01-16T04:07:39;4.20;;;0.85;;
34102;SDS011;20381;54.498;18.206;2023-01-16T04:10:19;4.10;;;1.10;;
34102;SDS011;20381;54.498;18.206;2023-01-16T04:12:51;2.30;;;0.85;;
34102;SDS011;20381;54.498;18.206;2023-01-16T04:15:25;3.75;;;0.80;;
34102;SDS011;20381;54.498;18.206;2023-01-16T04:17:56;3.87;;;1.02;;
34102;SDS011;20381;54.498;18.206;2023-01-16T04:20:25;2.17;;;0.90;;
34102;SDS011;20381;54.498;18.206;2023-01-16T04:22:55;2.37;;;0.93;;
34102;SDS011;20381;54.498;18.206;2023-01-16T04:25:31;3.30;;;0.95;;
34102;SDS011;20381;54.498;18.206;2023-01-16T04:28:34;1.60;;;0.80;;
34102;SDS011;20381;54.498;18.206;2023-01-16T04:31:10;1.30;;;0.80;;
34102;SDS011;20381;54.498;18.206;2023-01-16T04:33:34;2.50;;;1.00;;
34102;SDS011;20381;54.498;18.206;2023-01-16T04:36:00;1.43;;;0.70;;
34102;SDS011;20381;54.498;18.206;2023-01-16T04:41:51;3.42;;;0.95;;
34102;SDS011;20381;54.498;18.206;2023-01-16T04:44:20;2.08;;;0.90;;
34102;SDS011;20381;54.498;18.206;2023-01-16T04:46:47;2.27;;;0.93;;
34102;SDS011;20381;54.498;18.206;2023-01-16T04:58:24;2.67;;;1.00;;
34102;SDS011;20381;54.498;18.206;2023-01-16T05:01:06;2.67;;;0.95;;
34102;SDS011;20381;54.498;18.206;2023-01-16T05:12:03;1.90;;;0.60;;
34102;SDS011;20381;54.498;18.206;2023-01-16T05:14:41;3.27;;;1.30;;
34102;SDS011;20381;54.498;18.206;2023-01-16T05:17:05;4.30;;;1.05;;
34102;SDS011;20381;54.498;18.206;2023-01-16T05:25:03;2.85;;;1.12;;
34102;SDS011;20381;54.498;18.206;2023-01-16T05:27:36;4.83;;;1.10;;
34102;SDS011;20381;54.498;18.206;2023-01-16T05:30:03;3.12;;;1.05;;
34102;SDS011;20381;54.498;18.206;2023-01-16T05:32:32;2.27;;;0.98;;
34102;SDS011;20381;54.498;18.206;2023-01-16T05:34:59;2.47;;;1.20;;
34102;SDS011;20381;54.498;18.206;2023-01-16T05:37:30;2.85;;;1.07;;
34102;SDS011;20381;54.498;18.206;2023-01-16T05:40:05;2.08;;;0.80;;
34102;SDS011;20381;54.498;18.206;2023-01-16T05:42:34;1.57;;;0.60;;
34102;SDS011;20381;54.498;18.206;2023-01-16T05:45:01;3.22;;;0.98;;
34102;SDS011;20381;54.498;18.206;2023-01-16T05:47:30;2.27;;;1.50;;
34102;SDS011;20381;54.498;18.206;2023-01-16T05:49:59;2.00;;;1.20;;
34102;SDS011;20381;54.498;18.206;2023-01-16T05:52:35;3.02;;;1.32;;
34102;SDS011;20381;54.498;18.206;2023-01-16T05:55:04;4.00;;;1.32;;
34102;SDS011;20381;54.498;18.206;2023-01-16T05:57:34;3.45;;;1.10;;
34102;SDS011;20381;54.498;18.206;2023-01-16T06:00:07;2.87;;;1.00;;
34102;SDS011;20381;54.498;18.206;2023-01-16T06:02:43;2.42;;;1.20;;
34102;SDS011;20381;54.498;18.206;2023-01-16T06:05:15;2.72;;;1.00;;
34102;SDS011;20381;54.498;18.206;2023-01-16T06:20:08;2.10;;;1.22;;
34102;SDS011;20381;54.498;18.206;2023-01-16T06:29:12;3.92;;;1.35;;
34102;SDS011;20381;54.498;18.206;2023-01-16T06:34:39;3.30;;;1.57;;
34102;SDS011;20381;54.498;18.206;2023-01-16T06:37:20;2.80;;;1.65;;
34102;SDS011;20381;54.498;18.206;2023-01-16T06:42:46;2.67;;;1.62;;
34102;SDS011;20381;54.498;18.206;2023-01-16T06:54:18;1.32;;;1.02;;
34102;SDS011;20381;54.498;18.206;2023-01-16T07:21:10;2.98;;;1.70;;
34102;SDS011;20381;54.498;18.206;2023-01-16T07:24:06;4.30;;;2.37;;
34102;SDS011;20381;54.498;18.206;2023-01-16T07:27:00;3.95;;;1.85;;
34102;SDS011;20381;54.498;18.206;2023-01-16T07:32:38;3.12;;;1.95;;
34102;SDS011;20381;54.498;18.206;2023-01-16T08:14:05;5.17;;;1.87;;
34102;SDS011;20381;54.498;18.206;2023-01-16T15:14:17;22.10;;;12.82;;
34102;SDS011;20381;54.498;18.206;2023-01-16T15:20:20;19.90;;;11.03;;
34102;SDS011;20381;54.498;18.206;2023-01-16T15:41:09;24.43;;;11.95;;
34102;SDS011;20381;54.498;18.206;2023-01-16T15:49:52;29.63;;;12.58;;
34102;SDS011;20381;54.498;18.206;2023-01-16T16:08:14;26.85;;;15.20;;
34102;SDS011;20381;54.498;18.206;2023-01-16T17:51:13;17.82;;;10.98;;
34102;SDS011;20381;54.498;18.206;2023-01-16T20:49:30;28.40;;;18.12;;
